Accueil
METAR-TAF:

METAR-TAF

Aéroports :

Aéroport de Perpignan-Rivesaltes

Perpignan, France

latitude: 42-44N, longitude: 002-52E, altitude: 43 m

Observation

Le bulletin a été fait il y a 11 minutes, à 15:00 UTC
Vent 10 kt de nord-ouest
Température 13°C
Humidité 33%
Pression 1027 hPa
Visibilité 10 km ou plus
pas de nuages en-dessous de 1500 mètres et pas de cumulonimbus.

METAR: LFMP 221500Z AUTO 31010KT CAVOK 13/M03 Q1027 NOSIG

Heure: 16:11 (15:11 UTC)

Prévision

Le bulletin a été fait il y a 1 heure et 11 minutes, à 14:00 UTC
Prévision valable du 22 à 15 UTC au 23 à 15 UTC
Vent 10 kt de nord-ouest
Visibilité 10 km ou plus
pas de nuages en-dessous de 1500 mètres et pas de cumulonimbus.
Evoluant progressivement
du 22 à 20 UTC au 22 à 22 UTC
Vent 5 kt de ouest/sud-ouest
Temporairement
du 23 à 11 UTC au 23 à 15 UTC
Vent 10 kt de est

TAF: LFMP 221400Z 2215/2315 31010KT CAVOK BECMG 2220/2222 25005KT TEMPO 2311/2315 08010KT

Observations et prévisions météorologiques de plus de 4000 aéroports (messages METAR et TAF).

Les stations disponibles sont représentées par des disques jaunes et rouges sur la carte.

Passer la souris dessus pour voir le nom de la station.

Cliquer dessus pour voir les observations et prévisions météorologiques.

Pour changer de carte: cliquez sur les boutons verts avec une croix noire pour zoomer, sur le bouton vert avec un tiret pour effectuer un zoom arrière, ou sur les flèches vertes pour les cartes adjacentes.


METAR-TAF: